createdAt,value
2023-12-11T00:00:35.349Z,88.40
2023-12-11T00:03:02.569Z,88.40
2023-12-11T00:05:30.851Z,88.40
2023-12-11T00:07:59.560Z,88.40
2023-12-11T00:10:27.169Z,88.50
2023-12-11T00:12:55.046Z,88.60
2023-12-11T00:15:23.718Z,88.50
2023-12-11T00:17:51.281Z,88.60
2023-12-11T00:20:18.857Z,88.50
2023-12-11T00:22:48.816Z,88.50
2023-12-11T00:25:18.007Z,88.60
2023-12-11T00:27:45.255Z,88.60
2023-12-11T00:30:15.665Z,88.60
2023-12-11T00:32:42.886Z,88.60
2023-12-11T00:35:11.868Z,88.60
2023-12-11T00:37:39.745Z,88.70
2023-12-11T00:40:08.679Z,88.70
2023-12-11T00:42:37.391Z,88.70
2023-12-11T00:45:05.503Z,88.70
2023-12-11T00:47:33.394Z,88.70
2023-12-11T00:50:02.914Z,88.70
2023-12-11T00:52:31.541Z,88.70
2023-12-11T00:54:58.845Z,88.70
2023-12-11T00:57:27.083Z,88.60
2023-12-11T00:59:56.106Z,88.60
2023-12-11T01:02:23.460Z,88.60
2023-12-11T01:04:51.448Z,88.60
2023-12-11T01:07:18.681Z,88.60
2023-12-11T01:09:46.353Z,88.60
2023-12-11T01:12:16.286Z,88.60
2023-12-11T01:14:43.476Z,88.60
2023-12-11T01:17:37.173Z,88.60
2023-12-11T01:20:03.440Z,88.50
2023-12-11T01:22:30.808Z,88.50
2023-12-11T01:24:57.949Z,88.50
2023-12-11T01:27:25.388Z,88.50
2023-12-11T01:29:52.661Z,88.50
2023-12-11T01:32:21.667Z,88.50
2023-12-11T01:34:49.107Z,88.50
2023-12-11T01:37:16.390Z,88.40
2023-12-11T01:39:44.112Z,88.40
2023-12-11T01:42:11.466Z,88.40
2023-12-11T01:44:39.721Z,88.40
2023-12-11T01:47:07.453Z,88.40
2023-12-11T01:49:37.271Z,88.30
2023-12-11T01:52:07.401Z,88.30
2023-12-11T01:54:36.103Z,88.30
2023-12-11T01:57:03.345Z,88.30
2023-12-11T01:59:30.755Z,88.30
2023-12-11T02:01:58.328Z,88.30
2023-12-11T02:04:30.754Z,88.40
2023-12-11T02:06:59.637Z,88.40
2023-12-11T02:09:28.109Z,88.40
2023-12-11T02:11:57.075Z,88.50
2023-12-11T02:14:24.820Z,88.60
2023-12-11T02:16:52.502Z,88.60
2023-12-11T02:19:20.513Z,88.60
2023-12-11T02:21:47.871Z,88.70
2023-12-11T02:24:22.930Z,88.80
2023-12-11T02:26:51.460Z,88.80
2023-12-11T02:29:18.739Z,88.90
2023-12-11T02:31:46.167Z,88.90
2023-12-11T02:34:14.808Z,88.90
2023-12-11T02:36:42.140Z,88.90
2023-12-11T02:39:09.731Z,88.90
2023-12-11T02:41:36.908Z,88.90
2023-12-11T02:44:05.859Z,89.00
2023-12-11T02:46:33.099Z,89.00
2023-12-11T02:49:00.349Z,89.00
2023-12-11T02:51:27.555Z,89.10
2023-12-11T02:53:54.794Z,89.10
2023-12-11T02:56:21.890Z,89.10
2023-12-11T02:58:49.039Z,89.20
2023-12-11T03:01:17.754Z,89.30
2023-12-11T03:03:46.827Z,89.40
2023-12-11T03:06:19.712Z,89.40
2023-12-11T03:08:47.000Z,89.30
2023-12-11T03:11:15.367Z,89.40
2023-12-11T03:13:42.550Z,89.40
2023-12-11T03:16:13.914Z,89.40
2023-12-11T03:18:46.021Z,89.40
2023-12-11T03:21:13.456Z,89.40
2023-12-11T03:23:41.999Z,89.50
2023-12-11T03:26:09.284Z,89.50
2023-12-11T03:28:36.934Z,89.40
2023-12-11T03:31:04.515Z,89.40
2023-12-11T03:33:31.847Z,89.50
2023-12-11T03:36:00.377Z,89.50
2023-12-11T03:38:28.073Z,89.40
2023-12-11T03:40:55.250Z,89.40
2023-12-11T03:43:22.512Z,89.30
2023-12-11T03:45:49.708Z,89.30
2023-12-11T03:48:17.454Z,89.30
2023-12-11T03:50:44.687Z,89.30
2023-12-11T03:53:13.545Z,89.30
2023-12-11T03:55:40.674Z,89.30
2023-12-11T03:58:09.738Z,89.30
2023-12-11T04:00:37.452Z,89.30
2023-12-11T04:03:04.940Z,89.30
2023-12-11T04:05:32.329Z,89.20
2023-12-11T04:07:59.597Z,89.30
2023-12-11T04:10:30.163Z,89.20
2023-12-11T04:13:03.923Z,89.20
2023-12-11T04:15:31.408Z,89.10
2023-12-11T04:17:58.632Z,89.10
2023-12-11T04:20:25.936Z,89.10
2023-12-11T04:22:53.366Z,89.10
2023-12-11T04:25:20.543Z,89.00
2023-12-11T04:27:49.334Z,89.00
2023-12-11T04:30:16.714Z,89.00
2023-12-11T04:32:44.814Z,88.90
2023-12-11T04:35:12.272Z,88.90
2023-12-11T04:37:41.108Z,88.90
2023-12-11T04:40:09.443Z,88.80
2023-12-11T04:42:36.707Z,88.80
2023-12-11T04:45:06.202Z,88.70
2023-12-11T04:47:33.990Z,88.70
2023-12-11T04:50:01.424Z,88.60
2023-12-11T04:52:28.753Z,88.40
2023-12-11T04:54:56.249Z,88.40
2023-12-11T04:57:23.948Z,88.40
2023-12-11T04:59:51.209Z,88.20
2023-12-11T05:02:19.912Z,88.20
2023-12-11T05:04:47.148Z,88.10
2023-12-11T05:07:21.015Z,88.00
2023-12-11T05:09:48.218Z,87.90
2023-12-11T05:12:16.601Z,87.80
2023-12-11T05:14:44.119Z,87.80
2023-12-11T05:17:11.587Z,87.70
2023-12-11T05:19:41.071Z,87.60
2023-12-11T05:22:08.231Z,87.50
2023-12-11T05:24:35.486Z,87.50
2023-12-11T05:27:02.584Z,87.50
2023-12-11T05:29:30.041Z,87.40
2023-12-11T05:31:59.163Z,87.40
2023-12-11T05:34:27.523Z,87.30
2023-12-11T05:36:56.468Z,87.30
2023-12-11T05:39:25.299Z,87.20
2023-12-11T05:41:52.625Z,87.20
2023-12-11T05:44:19.925Z,87.20
2023-12-11T05:46:50.390Z,87.20
2023-12-11T05:49:17.734Z,87.30
2023-12-11T05:51:45.124Z,87.40
2023-12-11T05:54:13.870Z,87.50
2023-12-11T05:56:41.295Z,87.50
2023-12-11T05:59:08.932Z,87.40
2023-12-11T06:01:36.192Z,87.40
2023-12-11T06:04:05.265Z,87.40
2023-12-11T06:06:33.672Z,87.30
2023-12-11T06:09:00.876Z,87.30
2023-12-11T06:11:29.770Z,87.30
2023-12-11T06:13:58.685Z,87.30
2023-12-11T06:16:26.057Z,87.40
2023-12-11T06:18:53.898Z,87.40
2023-12-11T06:21:21.690Z,87.50
2023-12-11T06:23:50.561Z,87.60
2023-12-11T06:26:31.862Z,87.70
2023-12-11T06:29:05.425Z,87.70
2023-12-11T06:31:32.868Z,87.70
2023-12-11T06:34:00.401Z,87.70
2023-12-11T06:36:29.709Z,87.60
2023-12-11T06:38:57.552Z,87.60
2023-12-11T06:41:24.929Z,87.60
2023-12-11T06:44:01.169Z,87.60
2023-12-11T06:46:30.843Z,87.60
2023-12-11T06:48:59.301Z,87.60
2023-12-11T06:51:27.251Z,87.60
2023-12-11T06:54:00.099Z,87.70
2023-12-11T06:56:28.863Z,87.70
2023-12-11T06:58:57.981Z,87.80
2023-12-11T07:01:28.523Z,87.80
2023-12-11T07:03:56.353Z,87.90
2023-12-11T07:06:23.690Z,87.90
2023-12-11T07:08:51.129Z,88.00
2023-12-11T07:11:19.076Z,88.00
2023-12-11T07:13:46.483Z,88.00
2023-12-11T07:16:15.922Z,88.10
2023-12-11T07:18:43.997Z,88.10
2023-12-11T07:21:11.740Z,88.10
2023-12-11T07:23:39.489Z,88.20
2023-12-11T07:26:10.986Z,88.20
2023-12-11T07:28:40.745Z,88.20
2023-12-11T07:31:08.146Z,88.20
2023-12-11T07:33:38.791Z,88.30
2023-12-11T07:36:07.136Z,88.30
2023-12-11T07:38:34.451Z,88.30
2023-12-11T07:41:04.340Z,88.30
2023-12-11T07:43:34.395Z,88.30
2023-12-11T07:46:02.586Z,88.30
2023-12-11T07:48:30.488Z,88.40
2023-12-11T07:50:59.245Z,88.40
2023-12-11T07:53:26.602Z,88.40
2023-12-11T07:55:55.150Z,88.40
2023-12-11T07:58:22.459Z,88.40
2023-12-11T08:00:50.073Z,88.50
2023-12-11T08:03:17.381Z,88.60
2023-12-11T08:05:45.357Z,88.60
2023-12-11T08:08:15.164Z,88.60
2023-12-11T08:10:42.870Z,88.60
2023-12-11T08:13:11.800Z,88.60
2023-12-11T08:15:39.763Z,88.50
2023-12-11T08:18:07.159Z,88.50
2023-12-11T08:20:34.334Z,88.40
2023-12-11T08:23:02.164Z,88.40
2023-12-11T08:25:31.440Z,88.30
2023-12-11T08:27:58.819Z,88.10
2023-12-11T08:30:26.076Z,88.00
2023-12-11T08:32:53.201Z,87.90
2023-12-11T08:35:20.708Z,87.60
2023-12-11T08:37:48.174Z,87.70
2023-12-11T08:40:17.102Z,87.60
2023-12-11T08:42:47.846Z,87.40
2023-12-11T08:45:15.574Z,87.50
2023-12-11T08:47:44.490Z,87.30
2023-12-11T08:50:12.992Z,87.20
2023-12-11T08:52:42.298Z,87.10
2023-12-11T08:55:09.939Z,86.90
2023-12-11T08:57:38.032Z,86.70
2023-12-11T09:00:08.321Z,86.40
2023-12-11T09:02:35.758Z,86.40
2023-12-11T09:05:03.162Z,86.30
2023-12-11T09:07:30.894Z,85.90
2023-12-11T09:09:58.788Z,86.00
2023-12-11T09:12:32.913Z,86.00
2023-12-11T09:15:04.622Z,86.00
2023-12-11T09:17:36.661Z,85.90
2023-12-11T09:20:06.393Z,85.70
2023-12-11T09:22:34.638Z,85.70
2023-12-11T09:25:01.999Z,85.90
2023-12-11T09:27:29.350Z,85.80
2023-12-11T09:29:56.752Z,85.80
2023-12-11T09:32:24.249Z,85.70
2023-12-11T09:34:55.786Z,85.70
2023-12-11T09:37:23.180Z,85.60
2023-12-11T09:39:50.542Z,85.60
2023-12-11T09:42:21.534Z,85.70
2023-12-11T09:44:49.585Z,85.70
2023-12-11T09:47:23.296Z,85.70
2023-12-11T09:49:50.715Z,85.70
2023-12-11T09:52:23.372Z,85.70
2023-12-11T09:54:50.710Z,85.70
2023-12-11T09:57:18.082Z,85.70
2023-12-11T09:59:49.052Z,85.70
2023-12-11T10:02:17.927Z,85.60
2023-12-11T10:05:04.564Z,85.70
2023-12-11T10:07:33.977Z,85.50
2023-12-11T10:10:20.337Z,85.50
2023-12-11T10:12:48.425Z,85.50
2023-12-11T10:15:21.608Z,85.50
2023-12-11T10:18:04.815Z,85.40
2023-12-11T10:20:32.781Z,85.50
2023-12-11T10:23:15.050Z,85.30
2023-12-11T10:25:46.620Z,85.40
2023-12-11T10:28:15.491Z,85.40
2023-12-11T10:30:53.720Z,85.50
2023-12-11T10:33:23.302Z,85.50
2023-12-11T10:35:51.714Z,85.50
2023-12-11T10:38:24.992Z,85.50
2023-12-11T10:40:54.047Z,85.40
2023-12-11T10:43:21.418Z,85.50
2023-12-11T10:45:51.654Z,85.20
2023-12-11T10:48:23.414Z,85.20
2023-12-11T10:50:51.421Z,85.30
2023-12-11T10:53:20.443Z,85.20
2023-12-11T10:55:53.334Z,85.20
2023-12-11T10:58:22.316Z,85.00
2023-12-11T11:00:49.806Z,84.70
2023-12-11T11:03:25.402Z,84.30
2023-12-11T11:05:54.458Z,84.50
2023-12-11T11:08:28.780Z,84.40
2023-12-11T11:10:59.651Z,84.40
2023-12-11T11:13:33.376Z,84.40
2023-12-11T11:16:01.249Z,84.20
2023-12-11T11:18:28.499Z,84.40
2023-12-11T11:21:13.449Z,84.40
2023-12-11T11:23:44.641Z,84.00
2023-12-11T11:26:34.637Z,83.80
2023-12-11T11:29:07.146Z,83.20
2023-12-11T11:31:51.674Z,83.50
2023-12-11T11:34:47.442Z,83.30
2023-12-11T11:37:16.041Z,83.40
2023-12-11T11:39:57.959Z,83.60
2023-12-11T11:42:27.499Z,83.30
2023-12-11T11:44:59.852Z,83.30
2023-12-11T11:47:29.514Z,83.30
2023-12-11T11:50:05.266Z,83.40
2023-12-11T11:52:32.934Z,83.30
2023-12-11T11:55:07.570Z,83.40
2023-12-11T11:57:37.300Z,83.60
2023-12-11T12:00:07.351Z,83.70
2023-12-11T12:02:34.880Z,83.50
2023-12-11T12:05:10.606Z,83.40
2023-12-11T12:07:41.740Z,83.50
2023-12-11T12:10:12.509Z,83.50
2023-12-11T12:12:41.291Z,83.50
2023-12-11T12:15:09.568Z,83.70
2023-12-11T12:17:38.685Z,83.70
2023-12-11T12:20:10.997Z,83.70
2023-12-11T12:22:38.267Z,83.60
2023-12-11T12:25:14.884Z,83.60
2023-12-11T12:27:45.252Z,83.40
2023-12-11T12:30:13.801Z,83.50
2023-12-11T12:32:41.289Z,83.40
2023-12-11T12:35:10.192Z,83.50
2023-12-11T12:37:38.784Z,83.30
2023-12-11T12:40:08.031Z,83.30
2023-12-11T12:42:35.885Z,83.40
2023-12-11T12:45:05.437Z,83.70
2023-12-11T12:47:33.684Z,83.80
2023-12-11T12:50:02.298Z,83.80
2023-12-11T12:52:31.823Z,83.50
2023-12-11T12:54:59.048Z,83.30
2023-12-11T12:57:26.394Z,83.40
2023-12-11T12:59:53.641Z,83.40
2023-12-11T13:02:22.117Z,83.50
2023-12-11T13:04:51.188Z,83.60
2023-12-11T13:07:21.074Z,83.70
2023-12-11T13:09:50.404Z,83.70
2023-12-11T13:12:18.977Z,83.80
2023-12-11T13:14:47.329Z,84.00
2023-12-11T13:17:17.365Z,84.10
2023-12-11T13:19:46.255Z,84.30
2023-12-11T13:22:15.008Z,84.40
2023-12-11T13:24:42.195Z,84.60
2023-12-11T13:27:09.588Z,84.70
2023-12-11T13:29:37.126Z,84.80
2023-12-11T13:32:05.140Z,85.00
2023-12-11T13:34:34.972Z,85.20
2023-12-11T13:37:04.600Z,85.00
2023-12-11T13:39:32.591Z,85.10
2023-12-11T13:41:59.869Z,85.20
2023-12-11T13:44:27.394Z,85.40
2023-12-11T13:46:54.748Z,85.40
2023-12-11T13:49:22.278Z,85.60
2023-12-11T13:51:50.497Z,85.70
2023-12-11T13:54:19.298Z,85.70
2023-12-11T13:56:48.973Z,85.90
2023-12-11T13:59:16.808Z,85.80
2023-12-11T14:01:44.213Z,85.80
2023-12-11T14:04:12.022Z,86.00
2023-12-11T14:06:43.788Z,86.00
2023-12-11T14:09:11.349Z,85.90
2023-12-11T14:11:39.895Z,85.90
2023-12-11T14:14:09.260Z,86.00
2023-12-11T14:16:36.525Z,85.90
2023-12-11T14:19:05.148Z,86.00
2023-12-11T14:21:32.201Z,86.10
2023-12-11T14:23:59.179Z,86.20
2023-12-11T14:26:27.021Z,86.20
2023-12-11T14:28:58.650Z,86.20
2023-12-11T14:31:26.530Z,86.30
2023-12-11T14:33:54.057Z,86.20
2023-12-11T14:36:27.177Z,86.20
2023-12-11T14:38:58.128Z,86.20
2023-12-11T14:41:25.504Z,86.30
2023-12-11T14:43:52.531Z,86.30
2023-12-11T14:46:21.605Z,86.40
2023-12-11T14:48:49.048Z,86.40
2023-12-11T14:51:16.401Z,86.30
2023-12-11T14:53:43.492Z,86.30
2023-12-11T14:56:11.285Z,86.30
2023-12-11T14:58:38.374Z,86.30
2023-12-11T15:01:06.281Z,86.30
2023-12-11T15:03:36.474Z,86.30
2023-12-11T15:06:07.660Z,86.30
2023-12-11T15:08:34.958Z,86.40
2023-12-11T15:11:02.606Z,86.40
2023-12-11T15:13:30.533Z,86.50
2023-12-11T15:15:58.387Z,86.50
2023-12-11T15:18:25.910Z,86.60
2023-12-11T15:20:56.302Z,86.60
2023-12-11T15:23:24.967Z,86.60
2023-12-11T15:25:52.231Z,86.60
2023-12-11T15:28:19.564Z,86.70
2023-12-11T15:30:47.108Z,86.80
2023-12-11T15:33:14.411Z,86.80
2023-12-11T15:35:41.974Z,86.70
2023-12-11T15:38:10.840Z,86.80
2023-12-11T15:40:38.051Z,86.90
2023-12-11T15:43:05.388Z,86.90
2023-12-11T15:45:32.716Z,87.00
2023-12-11T15:48:02.814Z,86.90
2023-12-11T15:50:31.699Z,86.80
2023-12-11T15:52:59.571Z,86.90
2023-12-11T15:55:29.384Z,87.00
2023-12-11T15:57:57.245Z,87.10
2023-12-11T16:00:24.367Z,87.10
2023-12-11T16:02:56.643Z,87.30
2023-12-11T16:05:23.914Z,87.30
2023-12-11T16:07:51.245Z,87.40
2023-12-11T16:10:18.526Z,87.50
2023-12-11T16:12:47.681Z,87.50
2023-12-11T16:15:15.307Z,87.50
2023-12-11T16:17:42.399Z,87.50
2023-12-11T16:20:10.502Z,87.50
2023-12-11T16:22:39.440Z,87.60
2023-12-11T16:25:11.656Z,87.60
2023-12-11T16:27:39.592Z,87.60
2023-12-11T16:30:11.097Z,87.60
2023-12-11T16:32:38.537Z,87.80
2023-12-11T16:35:07.465Z,87.70
2023-12-11T16:37:34.652Z,87.70
2023-12-11T16:40:02.686Z,87.60
2023-12-11T16:42:30.651Z,87.60
2023-12-11T16:44:58.045Z,87.70
2023-12-11T16:47:26.687Z,87.70
2023-12-11T16:50:02.107Z,87.70
2023-12-11T16:52:34.497Z,87.70
2023-12-11T16:55:02.458Z,87.50
2023-12-11T16:57:30.281Z,87.70
2023-12-11T17:00:00.366Z,87.70
2023-12-11T17:02:29.641Z,87.60
2023-12-11T17:04:57.142Z,87.70
2023-12-11T17:07:24.746Z,87.70
2023-12-11T17:09:52.924Z,87.80
2023-12-11T17:12:20.080Z,87.70
2023-12-11T17:14:47.190Z,87.70
2023-12-11T17:17:14.431Z,87.70
2023-12-11T17:19:43.390Z,87.70
2023-12-11T17:22:10.708Z,87.80
2023-12-11T17:24:41.050Z,87.70
2023-12-11T17:27:09.660Z,87.70
2023-12-11T17:29:37.154Z,87.70
2023-12-11T17:32:05.169Z,87.80
2023-12-11T17:34:32.695Z,87.70
2023-12-11T17:37:02.370Z,87.80
2023-12-11T17:39:29.757Z,87.80
2023-12-11T17:41:57.907Z,87.70
2023-12-11T17:44:25.122Z,87.80
2023-12-11T17:46:52.471Z,87.80
2023-12-11T17:49:19.679Z,87.80
2023-12-11T17:51:47.569Z,87.70
2023-12-11T17:54:16.861Z,87.80
2023-12-11T17:56:43.853Z,87.70
2023-12-11T17:59:11.619Z,87.80
2023-12-11T18:01:39.857Z,87.80
2023-12-11T18:04:09.074Z,87.80
2023-12-11T18:06:36.258Z,87.70
2023-12-11T18:09:05.270Z,87.90
2023-12-11T18:11:35.772Z,87.80
2023-12-11T18:14:03.332Z,87.90
2023-12-11T18:16:30.684Z,87.90
2023-12-11T18:18:58.627Z,87.90
2023-12-11T18:21:27.234Z,87.90
2023-12-11T18:23:55.300Z,88.00
2023-12-11T18:26:23.089Z,88.10
2023-12-11T18:28:53.393Z,88.10
2023-12-11T18:31:20.605Z,88.20
2023-12-11T18:33:48.092Z,88.20
2023-12-11T18:36:16.197Z,88.20
2023-12-11T18:38:43.348Z,88.30
2023-12-11T18:41:10.879Z,88.30
2023-12-11T18:43:40.037Z,88.30
2023-12-11T18:46:08.909Z,88.30
2023-12-11T18:48:36.226Z,88.20
2023-12-11T18:51:03.443Z,88.40
2023-12-11T18:53:30.528Z,88.50
2023-12-11T18:56:01.414Z,88.40
2023-12-11T18:58:29.849Z,88.40
2023-12-11T19:00:58.593Z,88.50
2023-12-11T19:03:27.468Z,88.40
2023-12-11T19:05:55.289Z,88.20
2023-12-11T19:08:22.733Z,88.50
2023-12-11T19:10:50.120Z,88.50
2023-12-11T19:13:17.330Z,88.60
2023-12-11T19:15:44.654Z,88.60
2023-12-11T19:18:11.878Z,88.60
2023-12-11T19:20:41.066Z,88.60
2023-12-11T19:23:08.563Z,88.40
2023-12-11T19:25:35.880Z,88.50
2023-12-11T19:28:03.010Z,88.50
2023-12-11T19:30:30.426Z,88.50
2023-12-11T19:32:57.570Z,88.50
2023-12-11T19:35:26.520Z,88.50
2023-12-11T19:37:55.191Z,88.60
2023-12-11T19:40:22.519Z,88.70
2023-12-11T19:42:49.738Z,88.70
2023-12-11T19:45:17.330Z,88.80
2023-12-11T19:47:45.875Z,88.70
2023-12-11T19:50:13.397Z,88.70
2023-12-11T19:52:50.490Z,88.80
2023-12-11T19:55:20.742Z,88.80
2023-12-11T19:57:48.368Z,88.80
2023-12-11T20:00:16.292Z,88.90
2023-12-11T20:02:47.941Z,88.80
2023-12-11T20:05:15.291Z,88.90
2023-12-11T20:07:42.640Z,88.90
2023-12-11T20:10:11.949Z,88.90
2023-12-11T20:12:41.338Z,88.90
2023-12-11T20:15:12.046Z,88.90
2023-12-11T20:17:40.197Z,88.90
2023-12-11T20:20:09.108Z,88.80
2023-12-11T20:22:36.706Z,88.80
2023-12-11T20:25:06.363Z,88.80
2023-12-11T20:27:34.406Z,88.90
2023-12-11T20:30:04.334Z,88.80
2023-12-11T20:32:34.013Z,88.90
2023-12-11T20:35:02.027Z,88.90
2023-12-11T20:37:29.808Z,88.90
2023-12-11T20:39:57.337Z,88.90
2023-12-11T20:42:24.759Z,88.80
2023-12-11T20:44:54.922Z,88.90
2023-12-11T20:47:23.576Z,88.80
2023-12-11T20:49:51.138Z,88.80
2023-12-11T20:52:19.829Z,88.80
2023-12-11T20:54:47.251Z,88.80
2023-12-11T20:57:14.473Z,88.70
2023-12-11T20:59:42.222Z,88.70
2023-12-11T21:02:10.593Z,88.80
2023-12-11T21:04:39.547Z,88.80
2023-12-11T21:07:09.076Z,88.80
2023-12-11T21:09:36.597Z,88.80
2023-12-11T21:12:04.683Z,88.80
2023-12-11T21:14:31.710Z,88.80
2023-12-11T21:16:58.974Z,88.70
2023-12-11T21:19:26.381Z,88.80
2023-12-11T21:21:56.059Z,88.90
2023-12-11T21:24:23.501Z,88.90
2023-12-11T21:26:51.182Z,89.00
2023-12-11T21:29:19.296Z,89.00
2023-12-11T21:31:48.097Z,89.00
2023-12-11T21:34:15.262Z,89.00
2023-12-11T21:36:42.436Z,89.00
2023-12-11T21:39:11.211Z,89.00
2023-12-11T21:41:40.686Z,89.00
2023-12-11T21:44:08.169Z,89.00
2023-12-11T21:46:35.579Z,89.00
2023-12-11T21:49:03.424Z,89.00
2023-12-11T21:51:33.441Z,89.00
2023-12-11T21:54:00.766Z,89.00
2023-12-11T21:56:30.764Z,89.00
2023-12-11T21:58:57.949Z,89.00
2023-12-11T22:01:25.521Z,89.00
2023-12-11T22:03:52.764Z,89.00
2023-12-11T22:06:20.023Z,88.90
2023-12-11T22:08:47.151Z,89.00
2023-12-11T22:11:15.436Z,89.10
2023-12-11T22:13:47.174Z,89.10
2023-12-11T22:16:16.666Z,89.10
2023-12-11T22:18:44.187Z,88.90
2023-12-11T22:21:11.844Z,89.00
2023-12-11T22:23:39.441Z,89.00
2023-12-11T22:26:06.618Z,89.00
2023-12-11T22:28:33.827Z,89.00
2023-12-11T22:31:02.359Z,89.10
2023-12-11T22:33:32.820Z,89.00
2023-12-11T22:35:59.959Z,89.10
2023-12-11T22:38:26.947Z,89.00
2023-12-11T22:40:54.003Z,89.00
2023-12-11T22:43:21.061Z,89.10
2023-12-11T22:45:49.118Z,89.10
2023-12-11T22:48:19.295Z,89.10
2023-12-11T22:50:46.729Z,89.00
2023-12-11T22:53:13.787Z,89.00
2023-12-11T22:55:41.488Z,89.00
2023-12-11T22:58:15.951Z,89.00
2023-12-11T23:00:44.428Z,89.00
2023-12-11T23:03:12.038Z,89.10
2023-12-11T23:05:40.805Z,89.00
2023-12-11T23:08:07.854Z,89.00
2023-12-11T23:10:35.216Z,89.00
2023-12-11T23:13:04.220Z,89.00
2023-12-11T23:15:32.168Z,89.00
2023-12-11T23:17:59.845Z,89.00
2023-12-11T23:20:27.384Z,89.00
2023-12-11T23:22:56.332Z,88.90
2023-12-11T23:25:24.097Z,88.90
2023-12-11T23:27:51.308Z,88.80
2023-12-11T23:30:18.567Z,88.80
2023-12-11T23:32:45.743Z,88.80
2023-12-11T23:35:12.885Z,88.80
2023-12-11T23:37:40.177Z,88.70
2023-12-11T23:40:11.384Z,88.80
2023-12-11T23:42:38.710Z,88.80
2023-12-11T23:45:07.183Z,88.80
2023-12-11T23:47:35.875Z,88.70
2023-12-11T23:50:03.905Z,88.70
2023-12-11T23:52:31.341Z,88.70
2023-12-11T23:54:58.429Z,88.80
2023-12-11T23:57:26.931Z,88.80
2023-12-11T23:59:54.371Z,88.90
